< < Back
Terminal Aerodrome Forecast


Current Version              Previous Versions:   1  2  3  4  5  6  7  8  9  

Terminal Aerodrome Forecast

911
FTUS42 KTAE 220500
TAFVLD
TAF
KVLD 220539Z 2206/2306 00000KT P6SM SKC
     FM221500 02006KT P6SM SKC=



Latest METAR

696
SAUS70 KWBC 230500 RRB
MTRVLD
METAR KVLD 230453Z AUTO 00000KT 10SM CLR 09/06 A3007 RMK AO2 SLP190
T00890061 402500089


USA.gov is the U.S. government's official web portal to all federal, state and local government web resources and services.